sensor_id;sensor_type;location;lat;lon;timestamp;P1;durP1;ratioP1;P2;durP2;ratioP2
71048;SDS011;58704;53.358;-6.238;2023-04-25T00:01:26;4.43;;;1.80;;
71048;SDS011;58704;53.358;-6.238;2023-04-25T00:03:51;2.78;;;1.52;;
71048;SDS011;58704;53.358;-6.238;2023-04-25T00:06:17;3.30;;;1.53;;
71048;SDS011;58704;53.358;-6.238;2023-04-25T00:08:43;4.28;;;1.92;;
71048;SDS011;58704;53.358;-6.238;2023-04-25T00:11:10;3.60;;;1.50;;
71048;SDS011;58704;53.358;-6.238;2023-04-25T00:13:35;4.15;;;1.75;;
71048;SDS011;58704;53.358;-6.238;2023-04-25T00:16:01;3.73;;;1.83;;
71048;SDS011;58704;53.358;-6.238;2023-04-25T00:18:27;12.48;;;5.07;;
71048;SDS011;58704;53.358;-6.238;2023-04-25T00:20:54;22.38;;;11.30;;
71048;SDS011;58704;53.358;-6.238;2023-04-25T00:23:19;17.53;;;8.80;;
71048;SDS011;58704;53.358;-6.238;2023-04-25T00:25:45;11.43;;;5.13;;
71048;SDS011;58704;53.358;-6.238;2023-04-25T00:28:12;12.95;;;4.30;;
71048;SDS011;58704;53.358;-6.238;2023-04-25T00:30:39;6.70;;;2.90;;
71048;SDS011;58704;53.358;-6.238;2023-04-25T00:33:05;7.13;;;3.30;;
71048;SDS011;58704;53.358;-6.238;2023-04-25T00:35:30;6.00;;;2.60;;
71048;SDS011;58704;53.358;-6.238;2023-04-25T00:37:56;4.50;;;2.20;;
71048;SDS011;58704;53.358;-6.238;2023-04-25T00:40:22;5.70;;;2.10;;
71048;SDS011;58704;53.358;-6.238;2023-04-25T00:42:48;4.17;;;1.77;;
71048;SDS011;58704;53.358;-6.238;2023-04-25T00:45:14;3.90;;;2.08;;
71048;SDS011;58704;53.358;-6.238;2023-04-25T00:47:40;3.43;;;1.90;;
71048;SDS011;58704;53.358;-6.238;2023-04-25T00:50:07;3.42;;;2.00;;
71048;SDS011;58704;53.358;-6.238;2023-04-25T00:52:32;6.20;;;2.33;;
71048;SDS011;58704;53.358;-6.238;2023-04-25T00:54:58;3.43;;;1.47;;
71048;SDS011;58704;53.358;-6.238;2023-04-25T00:57:24;2.33;;;1.83;;
71048;SDS011;58704;53.358;-6.238;2023-04-25T00:59:50;4.30;;;1.50;;
71048;SDS011;58704;53.358;-6.238;2023-04-25T01:02:17;5.05;;;1.55;;
71048;SDS011;58704;53.358;-6.238;2023-04-25T01:04:42;3.53;;;1.80;;
71048;SDS011;58704;53.358;-6.238;2023-04-25T01:07:08;2.60;;;1.40;;
71048;SDS011;58704;53.358;-6.238;2023-04-25T01:09:35;3.42;;;1.55;;
71048;SDS011;58704;53.358;-6.238;2023-04-25T01:12:00;4.63;;;2.30;;
71048;SDS011;58704;53.358;-6.238;2023-04-25T01:14:26;3.10;;;2.03;;
71048;SDS011;58704;53.358;-6.238;2023-04-25T01:16:52;3.70;;;1.90;;
71048;SDS011;58704;53.358;-6.238;2023-04-25T01:19:18;3.27;;;2.00;;
71048;SDS011;58704;53.358;-6.238;2023-04-25T01:21:44;3.00;;;2.43;;
71048;SDS011;58704;53.358;-6.238;2023-04-25T01:24:10;3.72;;;1.90;;
71048;SDS011;58704;53.358;-6.238;2023-04-25T01:26:35;3.37;;;1.73;;
71048;SDS011;58704;53.358;-6.238;2023-04-25T01:29:01;4.55;;;2.35;;
71048;SDS011;58704;53.358;-6.238;2023-04-25T01:31:27;3.10;;;2.00;;
71048;SDS011;58704;53.358;-6.238;2023-04-25T01:33:52;3.17;;;1.95;;
71048;SDS011;58704;53.358;-6.238;2023-04-25T01:36:18;5.27;;;1.63;;
71048;SDS011;58704;53.358;-6.238;2023-04-25T01:38:44;2.80;;;1.50;;
71048;SDS011;58704;53.358;-6.238;2023-04-25T01:41:12;2.73;;;1.77;;
71048;SDS011;58704;53.358;-6.238;2023-04-25T01:43:38;4.65;;;1.85;;
71048;SDS011;58704;53.358;-6.238;2023-04-25T01:46:04;3.70;;;2.00;;
71048;SDS011;58704;53.358;-6.238;2023-04-25T01:48:29;2.95;;;1.58;;
71048;SDS011;58704;53.358;-6.238;2023-04-25T01:50:55;4.47;;;1.67;;
71048;SDS011;58704;53.358;-6.238;2023-04-25T01:53:20;3.27;;;1.93;;
71048;SDS011;58704;53.358;-6.238;2023-04-25T01:55:49;3.23;;;1.70;;
71048;SDS011;58704;53.358;-6.238;2023-04-25T01:58:16;2.10;;;1.52;;
71048;SDS011;58704;53.358;-6.238;2023-04-25T02:00:41;3.33;;;1.90;;
71048;SDS011;58704;53.358;-6.238;2023-04-25T02:03:07;3.70;;;2.33;;
71048;SDS011;58704;53.358;-6.238;2023-04-25T02:05:39;6.37;;;2.67;;
71048;SDS011;58704;53.358;-6.238;2023-04-25T02:08:05;3.83;;;2.05;;
71048;SDS011;58704;53.358;-6.238;2023-04-25T02:10:32;4.20;;;1.98;;
71048;SDS011;58704;53.358;-6.238;2023-04-25T02:12:58;6.28;;;2.00;;
71048;SDS011;58704;53.358;-6.238;2023-04-25T02:15:23;4.10;;;2.10;;
71048;SDS011;58704;53.358;-6.238;2023-04-25T02:17:49;5.63;;;1.83;;
71048;SDS011;58704;53.358;-6.238;2023-04-25T02:20:14;3.10;;;1.87;;
71048;SDS011;58704;53.358;-6.238;2023-04-25T02:22:41;3.72;;;1.85;;
71048;SDS011;58704;53.358;-6.238;2023-04-25T02:25:07;5.57;;;2.20;;
71048;SDS011;58704;53.358;-6.238;2023-04-25T02:27:34;6.78;;;1.98;;
71048;SDS011;58704;53.358;-6.238;2023-04-25T02:29:59;7.00;;;2.60;;
71048;SDS011;58704;53.358;-6.238;2023-04-25T02:32:25;6.70;;;2.60;;
71048;SDS011;58704;53.358;-6.238;2023-04-25T02:34:50;3.63;;;2.40;;
71048;SDS011;58704;53.358;-6.238;2023-04-25T02:37:15;5.03;;;2.37;;
71048;SDS011;58704;53.358;-6.238;2023-04-25T02:39:41;3.45;;;2.22;;
71048;SDS011;58704;53.358;-6.238;2023-04-25T02:42:06;3.83;;;2.27;;
71048;SDS011;58704;53.358;-6.238;2023-04-25T02:44:32;4.33;;;2.23;;
71048;SDS011;58704;53.358;-6.238;2023-04-25T02:46:57;3.83;;;2.20;;
71048;SDS011;58704;53.358;-6.238;2023-04-25T02:49:23;4.28;;;2.20;;
71048;SDS011;58704;53.358;-6.238;2023-04-25T02:51:48;4.17;;;2.10;;
71048;SDS011;58704;53.358;-6.238;2023-04-25T02:54:13;5.33;;;1.77;;
71048;SDS011;58704;53.358;-6.238;2023-04-25T02:56:39;5.17;;;2.83;;
71048;SDS011;58704;53.358;-6.238;2023-04-25T02:59:04;5.03;;;2.20;;
71048;SDS011;58704;53.358;-6.238;2023-04-25T03:01:30;7.83;;;2.27;;
71048;SDS011;58704;53.358;-6.238;2023-04-25T03:03:55;4.33;;;2.23;;
71048;SDS011;58704;53.358;-6.238;2023-04-25T03:06:20;5.30;;;2.30;;
71048;SDS011;58704;53.358;-6.238;2023-04-25T03:08:46;4.83;;;1.83;;
71048;SDS011;58704;53.358;-6.238;2023-04-25T03:11:11;2.80;;;2.17;;
71048;SDS011;58704;53.358;-6.238;2023-04-25T03:13:37;4.03;;;2.10;;
71048;SDS011;58704;53.358;-6.238;2023-04-25T03:16:02;5.30;;;2.17;;
71048;SDS011;58704;53.358;-6.238;2023-04-25T03:18:28;5.65;;;2.28;;
71048;SDS011;58704;53.358;-6.238;2023-04-25T03:20:53;3.20;;;1.93;;
71048;SDS011;58704;53.358;-6.238;2023-04-25T03:23:19;3.70;;;1.97;;
71048;SDS011;58704;53.358;-6.238;2023-04-25T03:25:44;4.95;;;2.08;;
71048;SDS011;58704;53.358;-6.238;2023-04-25T03:28:10;6.67;;;2.10;;
71048;SDS011;58704;53.358;-6.238;2023-04-25T03:30:35;9.80;;;2.70;;
71048;SDS011;58704;53.358;-6.238;2023-04-25T03:33:01;6.25;;;2.33;;
71048;SDS011;58704;53.358;-6.238;2023-04-25T03:35:26;7.37;;;2.47;;
71048;SDS011;58704;53.358;-6.238;2023-04-25T03:37:52;4.50;;;2.33;;
71048;SDS011;58704;53.358;-6.238;2023-04-25T03:40:17;7.40;;;2.00;;
71048;SDS011;58704;53.358;-6.238;2023-04-25T03:42:42;8.40;;;2.63;;
71048;SDS011;58704;53.358;-6.238;2023-04-25T03:45:08;5.05;;;2.25;;
71048;SDS011;58704;53.358;-6.238;2023-04-25T03:47:33;7.33;;;2.53;;
71048;SDS011;58704;53.358;-6.238;2023-04-25T03:49:59;6.17;;;1.97;;
71048;SDS011;58704;53.358;-6.238;2023-04-25T03:52:26;6.15;;;2.40;;
71048;SDS011;58704;53.358;-6.238;2023-04-25T03:54:52;5.97;;;2.58;;
71048;SDS011;58704;53.358;-6.238;2023-04-25T03:57:18;5.60;;;2.80;;
71048;SDS011;58704;53.358;-6.238;2023-04-25T03:59:43;6.43;;;2.83;;
71048;SDS011;58704;53.358;-6.238;2023-04-25T04:02:09;7.35;;;2.67;;
71048;SDS011;58704;53.358;-6.238;2023-04-25T04:04:35;6.47;;;2.57;;
71048;SDS011;58704;53.358;-6.238;2023-04-25T04:07:00;7.82;;;3.05;;
71048;SDS011;58704;53.358;-6.238;2023-04-25T04:09:25;6.77;;;3.17;;
71048;SDS011;58704;53.358;-6.238;2023-04-25T04:11:52;9.88;;;3.00;;
71048;SDS011;58704;53.358;-6.238;2023-04-25T04:14:17;7.20;;;2.80;;
71048;SDS011;58704;53.358;-6.238;2023-04-25T04:16:43;8.10;;;2.57;;
71048;SDS011;58704;53.358;-6.238;2023-04-25T04:19:08;15.33;;;3.10;;
71048;SDS011;58704;53.358;-6.238;2023-04-25T04:21:34;5.20;;;2.47;;
71048;SDS011;58704;53.358;-6.238;2023-04-25T04:24:00;4.60;;;2.47;;
71048;SDS011;58704;53.358;-6.238;2023-04-25T04:26:27;7.13;;;2.60;;
71048;SDS011;58704;53.358;-6.238;2023-04-25T04:28:53;5.50;;;2.53;;
71048;SDS011;58704;53.358;-6.238;2023-04-25T04:31:22;6.80;;;2.63;;
71048;SDS011;58704;53.358;-6.238;2023-04-25T04:33:49;9.13;;;2.80;;
71048;SDS011;58704;53.358;-6.238;2023-04-25T04:36:14;8.68;;;2.95;;
71048;SDS011;58704;53.358;-6.238;2023-04-25T04:38:40;6.60;;;2.30;;
71048;SDS011;58704;53.358;-6.238;2023-04-25T04:41:07;3.88;;;2.38;;
71048;SDS011;58704;53.358;-6.238;2023-04-25T04:43:32;5.47;;;2.50;;
71048;SDS011;58704;53.358;-6.238;2023-04-25T04:45:58;10.33;;;2.57;;
71048;SDS011;58704;53.358;-6.238;2023-04-25T04:48:25;7.68;;;2.03;;
71048;SDS011;58704;53.358;-6.238;2023-04-25T04:50:51;5.73;;;2.70;;
71048;SDS011;58704;53.358;-6.238;2023-04-25T04:53:16;6.70;;;2.80;;
71048;SDS011;58704;53.358;-6.238;2023-04-25T04:55:42;9.00;;;3.17;;
71048;SDS011;58704;53.358;-6.238;2023-04-25T04:58:07;6.23;;;3.07;;
71048;SDS011;58704;53.358;-6.238;2023-04-25T05:00:33;9.40;;;2.83;;
71048;SDS011;58704;53.358;-6.238;2023-04-25T05:02:58;6.67;;;2.93;;
71048;SDS011;58704;53.358;-6.238;2023-04-25T05:05:24;7.37;;;2.77;;
71048;SDS011;58704;53.358;-6.238;2023-04-25T05:07:50;5.55;;;2.75;;
71048;SDS011;58704;53.358;-6.238;2023-04-25T05:10:16;6.50;;;2.83;;
71048;SDS011;58704;53.358;-6.238;2023-04-25T05:12:45;7.22;;;3.08;;
71048;SDS011;58704;53.358;-6.238;2023-04-25T05:15:10;5.80;;;3.13;;
71048;SDS011;58704;53.358;-6.238;2023-04-25T05:17:36;10.02;;;3.28;;
71048;SDS011;58704;53.358;-6.238;2023-04-25T05:20:02;7.22;;;2.78;;
71048;SDS011;58704;53.358;-6.238;2023-04-25T05:22:30;9.30;;;3.47;;
71048;SDS011;58704;53.358;-6.238;2023-04-25T05:24:56;4.70;;;3.05;;
71048;SDS011;58704;53.358;-6.238;2023-04-25T05:27:22;10.40;;;4.05;;
71048;SDS011;58704;53.358;-6.238;2023-04-25T05:29:49;11.53;;;3.67;;
71048;SDS011;58704;53.358;-6.238;2023-04-25T05:32:14;8.38;;;3.10;;
71048;SDS011;58704;53.358;-6.238;2023-04-25T05:34:40;7.57;;;3.23;;
71048;SDS011;58704;53.358;-6.238;2023-04-25T05:37:06;7.68;;;3.50;;
71048;SDS011;58704;53.358;-6.238;2023-04-25T05:39:32;10.03;;;3.60;;
71048;SDS011;58704;53.358;-6.238;2023-04-25T05:41:57;7.47;;;3.60;;
71048;SDS011;58704;53.358;-6.238;2023-04-25T05:44:23;9.10;;;3.70;;
71048;SDS011;58704;53.358;-6.238;2023-04-25T05:46:48;7.72;;;3.60;;
71048;SDS011;58704;53.358;-6.238;2023-04-25T05:49:13;8.40;;;3.37;;
71048;SDS011;58704;53.358;-6.238;2023-04-25T05:51:39;7.17;;;3.93;;
71048;SDS011;58704;53.358;-6.238;2023-04-25T05:54:04;7.13;;;3.30;;
71048;SDS011;58704;53.358;-6.238;2023-04-25T05:56:30;12.57;;;4.13;;
71048;SDS011;58704;53.358;-6.238;2023-04-25T05:58:55;4.55;;;3.05;;
71048;SDS011;58704;53.358;-6.238;2023-04-25T06:01:21;8.50;;;3.90;;
71048;SDS011;58704;53.358;-6.238;2023-04-25T06:03:47;9.50;;;3.63;;
71048;SDS011;58704;53.358;-6.238;2023-04-25T06:06:13;8.20;;;3.10;;
71048;SDS011;58704;53.358;-6.238;2023-04-25T06:08:38;6.10;;;3.07;;
71048;SDS011;58704;53.358;-6.238;2023-04-25T06:11:05;8.63;;;3.67;;
71048;SDS011;58704;53.358;-6.238;2023-04-25T06:13:31;8.23;;;3.22;;
71048;SDS011;58704;53.358;-6.238;2023-04-25T06:15:56;5.10;;;3.30;;
71048;SDS011;58704;53.358;-6.238;2023-04-25T06:18:21;6.10;;;3.20;;
71048;SDS011;58704;53.358;-6.238;2023-04-25T06:20:47;8.13;;;3.17;;
71048;SDS011;58704;53.358;-6.238;2023-04-25T06:23:12;8.73;;;3.57;;
71048;SDS011;58704;53.358;-6.238;2023-04-25T06:25:37;6.70;;;3.37;;
71048;SDS011;58704;53.358;-6.238;2023-04-25T06:28:03;5.87;;;2.47;;
71048;SDS011;58704;53.358;-6.238;2023-04-25T06:30:28;4.87;;;2.60;;
71048;SDS011;58704;53.358;-6.238;2023-04-25T06:32:54;9.60;;;3.00;;
71048;SDS011;58704;53.358;-6.238;2023-04-25T06:35:20;4.57;;;3.10;;
71048;SDS011;58704;53.358;-6.238;2023-04-25T06:37:46;7.22;;;3.28;;
71048;SDS011;58704;53.358;-6.238;2023-04-25T06:40:12;8.98;;;3.70;;
71048;SDS011;58704;53.358;-6.238;2023-04-25T06:42:37;7.30;;;3.43;;
71048;SDS011;58704;53.358;-6.238;2023-04-25T06:45:02;6.37;;;3.80;;
71048;SDS011;58704;53.358;-6.238;2023-04-25T06:47:28;7.38;;;3.65;;
71048;SDS011;58704;53.358;-6.238;2023-04-25T06:49:54;6.80;;;4.05;;
71048;SDS011;58704;53.358;-6.238;2023-04-25T06:52:20;6.87;;;3.80;;
71048;SDS011;58704;53.358;-6.238;2023-04-25T06:54:45;9.47;;;3.80;;
71048;SDS011;58704;53.358;-6.238;2023-04-25T06:57:11;13.32;;;4.20;;
71048;SDS011;58704;53.358;-6.238;2023-04-25T06:59:37;12.33;;;3.90;;
71048;SDS011;58704;53.358;-6.238;2023-04-25T07:02:02;9.47;;;4.17;;
71048;SDS011;58704;53.358;-6.238;2023-04-25T07:04:28;8.07;;;3.40;;
71048;SDS011;58704;53.358;-6.238;2023-04-25T07:06:54;7.43;;;3.80;;
71048;SDS011;58704;53.358;-6.238;2023-04-25T07:09:19;10.57;;;4.03;;
71048;SDS011;58704;53.358;-6.238;2023-04-25T07:11:45;9.67;;;4.17;;
71048;SDS011;58704;53.358;-6.238;2023-04-25T07:14:10;9.68;;;4.00;;
71048;SDS011;58704;53.358;-6.238;2023-04-25T07:16:36;10.43;;;4.30;;
71048;SDS011;58704;53.358;-6.238;2023-04-25T07:19:01;15.57;;;3.80;;
71048;SDS011;58704;53.358;-6.238;2023-04-25T07:21:28;7.60;;;3.63;;
71048;SDS011;58704;53.358;-6.238;2023-04-25T07:23:53;7.15;;;3.22;;
71048;SDS011;58704;53.358;-6.238;2023-04-25T07:26:19;9.93;;;3.80;;
71048;SDS011;58704;53.358;-6.238;2023-04-25T07:28:44;7.33;;;3.30;;
71048;SDS011;58704;53.358;-6.238;2023-04-25T07:31:10;6.43;;;3.30;;
71048;SDS011;58704;53.358;-6.238;2023-04-25T07:33:36;7.07;;;3.40;;
71048;SDS011;58704;53.358;-6.238;2023-04-25T07:36:01;10.33;;;3.60;;
71048;SDS011;58704;53.358;-6.238;2023-04-25T07:38:27;8.23;;;3.70;;
71048;SDS011;58704;53.358;-6.238;2023-04-25T07:40:52;8.10;;;3.60;;
71048;SDS011;58704;53.358;-6.238;2023-04-25T07:43:18;8.97;;;3.37;;
71048;SDS011;58704;53.358;-6.238;2023-04-25T07:45:44;8.47;;;4.30;;
71048;SDS011;58704;53.358;-6.238;2023-04-25T07:48:09;10.02;;;3.85;;
71048;SDS011;58704;53.358;-6.238;2023-04-25T07:50:35;6.97;;;3.92;;
71048;SDS011;58704;53.358;-6.238;2023-04-25T07:53:01;12.60;;;4.00;;
71048;SDS011;58704;53.358;-6.238;2023-04-25T07:55:28;8.18;;;3.17;;
71048;SDS011;58704;53.358;-6.238;2023-04-25T07:57:53;5.70;;;3.07;;
71048;SDS011;58704;53.358;-6.238;2023-04-25T08:00:18;7.67;;;3.37;;
71048;SDS011;58704;53.358;-6.238;2023-04-25T08:02:44;7.57;;;3.30;;
71048;SDS011;58704;53.358;-6.238;2023-04-25T08:05:10;5.72;;;2.92;;
71048;SDS011;58704;53.358;-6.238;2023-04-25T08:07:39;8.83;;;3.83;;
71048;SDS011;58704;53.358;-6.238;2023-04-25T08:10:06;8.35;;;3.42;;
71048;SDS011;58704;53.358;-6.238;2023-04-25T08:12:31;8.95;;;4.00;;
71048;SDS011;58704;53.358;-6.238;2023-04-25T08:14:57;13.57;;;4.00;;
71048;SDS011;58704;53.358;-6.238;2023-04-25T08:17:22;10.75;;;3.30;;
71048;SDS011;58704;53.358;-6.238;2023-04-25T08:19:48;10.83;;;3.10;;
71048;SDS011;58704;53.358;-6.238;2023-04-25T08:22:14;6.20;;;3.00;;
71048;SDS011;58704;53.358;-6.238;2023-04-25T08:24:39;6.40;;;2.50;;
71048;SDS011;58704;53.358;-6.238;2023-04-25T08:27:05;9.63;;;3.17;;
71048;SDS011;58704;53.358;-6.238;2023-04-25T08:29:32;7.83;;;3.13;;
71048;SDS011;58704;53.358;-6.238;2023-04-25T08:31:58;6.50;;;2.58;;
71048;SDS011;58704;53.358;-6.238;2023-04-25T08:34:23;6.47;;;2.17;;
71048;SDS011;58704;53.358;-6.238;2023-04-25T08:36:50;7.43;;;3.08;;
71048;SDS011;58704;53.358;-6.238;2023-04-25T08:39:16;7.67;;;2.80;;
71048;SDS011;58704;53.358;-6.238;2023-04-25T08:41:41;7.40;;;2.43;;
71048;SDS011;58704;53.358;-6.238;2023-04-25T08:44:07;5.45;;;1.98;;
71048;SDS011;58704;53.358;-6.238;2023-04-25T08:46:35;6.77;;;2.37;;
71048;SDS011;58704;53.358;-6.238;2023-04-25T08:49:03;6.72;;;2.30;;
71048;SDS011;58704;53.358;-6.238;2023-04-25T08:51:30;6.95;;;2.63;;
71048;SDS011;58704;53.358;-6.238;2023-04-25T08:53:57;7.43;;;2.73;;
71048;SDS011;58704;53.358;-6.238;2023-04-25T08:56:35;6.47;;;3.15;;
71048;SDS011;58704;53.358;-6.238;2023-04-25T08:59:01;3.38;;;1.80;;
71048;SDS011;58704;53.358;-6.238;2023-04-25T09:01:27;7.43;;;2.00;;
71048;SDS011;58704;53.358;-6.238;2023-04-25T09:03:53;3.50;;;2.03;;
71048;SDS011;58704;53.358;-6.238;2023-04-25T09:06:19;7.25;;;2.22;;
71048;SDS011;58704;53.358;-6.238;2023-04-25T09:08:44;7.35;;;2.80;;
71048;SDS011;58704;53.358;-6.238;2023-04-25T09:11:10;4.73;;;1.97;;
71048;SDS011;58704;53.358;-6.238;2023-04-25T09:13:39;7.60;;;2.83;;
71048;SDS011;58704;53.358;-6.238;2023-04-25T09:16:04;14.07;;;3.13;;
71048;SDS011;58704;53.358;-6.238;2023-04-25T09:18:30;6.73;;;2.30;;
71048;SDS011;58704;53.358;-6.238;2023-04-25T09:20:58;3.83;;;2.08;;
71048;SDS011;58704;53.358;-6.238;2023-04-25T09:23:30;3.83;;;2.15;;
71048;SDS011;58704;53.358;-6.238;2023-04-25T09:25:56;6.83;;;2.20;;
71048;SDS011;58704;53.358;-6.238;2023-04-25T09:28:25;4.00;;;2.00;;
71048;SDS011;58704;53.358;-6.238;2023-04-25T09:30:54;3.83;;;2.08;;
71048;SDS011;58704;53.358;-6.238;2023-04-25T09:33:22;3.67;;;2.10;;
71048;SDS011;58704;53.358;-6.238;2023-04-25T09:35:52;9.48;;;2.30;;
71048;SDS011;58704;53.358;-6.238;2023-04-25T09:38:20;4.95;;;1.70;;
71048;SDS011;58704;53.358;-6.238;2023-04-25T09:40:47;3.97;;;1.53;;
71048;SDS011;58704;53.358;-6.238;2023-04-25T09:43:22;5.95;;;2.15;;
71048;SDS011;58704;53.358;-6.238;2023-04-25T09:45:49;6.60;;;2.13;;
71048;SDS011;58704;53.358;-6.238;2023-04-25T09:48:17;7.88;;;2.33;;
71048;SDS011;58704;53.358;-6.238;2023-04-25T09:50:43;4.13;;;1.93;;
71048;SDS011;58704;53.358;-6.238;2023-04-25T09:53:09;8.70;;;2.10;;
71048;SDS011;58704;53.358;-6.238;2023-04-25T09:55:35;3.78;;;2.15;;
71048;SDS011;58704;53.358;-6.238;2023-04-25T09:58:03;6.83;;;2.07;;
71048;SDS011;58704;53.358;-6.238;2023-04-25T10:00:31;4.10;;;1.75;;
71048;SDS011;58704;53.358;-6.238;2023-04-25T10:02:57;7.90;;;1.80;;
71048;SDS011;58704;53.358;-6.238;2023-04-25T10:05:28;5.93;;;2.43;;
71048;SDS011;58704;53.358;-6.238;2023-04-25T10:07:55;4.82;;;1.83;;
71048;SDS011;58704;53.358;-6.238;2023-04-25T10:10:21;5.90;;;2.00;;
71048;SDS011;58704;53.358;-6.238;2023-04-25T10:12:50;4.70;;;1.60;;
71048;SDS011;58704;53.358;-6.238;2023-04-25T10:15:16;3.30;;;1.80;;
71048;SDS011;58704;53.358;-6.238;2023-04-25T10:17:42;6.47;;;2.03;;
71048;SDS011;58704;53.358;-6.238;2023-04-25T10:20:08;8.52;;;2.88;;
71048;SDS011;58704;53.358;-6.238;2023-04-25T10:22:37;3.27;;;1.93;;
71048;SDS011;58704;53.358;-6.238;2023-04-25T10:25:04;7.35;;;2.22;;
71048;SDS011;58704;53.358;-6.238;2023-04-25T10:27:31;4.20;;;1.70;;
71048;SDS011;58704;53.358;-6.238;2023-04-25T10:30:00;6.25;;;1.85;;
71048;SDS011;58704;53.358;-6.238;2023-04-25T10:32:37;4.80;;;1.80;;
71048;SDS011;58704;53.358;-6.238;2023-04-25T10:35:13;5.20;;;2.28;;
71048;SDS011;58704;53.358;-6.238;2023-04-25T10:46:17;5.18;;;2.10;;
71048;SDS011;58704;53.358;-6.238;2023-04-25T10:48:53;4.20;;;2.00;;
71048;SDS011;58704;53.358;-6.238;2023-04-25T10:56:22;6.82;;;2.15;;
71048;SDS011;58704;53.358;-6.238;2023-04-25T10:58:52;4.73;;;1.90;;
71048;SDS011;58704;53.358;-6.238;2023-04-25T11:01:28;6.80;;;2.10;;
71048;SDS011;58704;53.358;-6.238;2023-04-25T11:04:05;6.63;;;2.35;;
71048;SDS011;58704;53.358;-6.238;2023-04-25T11:06:34;7.05;;;1.85;;
71048;SDS011;58704;53.358;-6.238;2023-04-25T11:09:11;4.90;;;2.15;;
71048;SDS011;58704;53.358;-6.238;2023-04-25T11:11:40;4.30;;;2.00;;
71048;SDS011;58704;53.358;-6.238;2023-04-25T11:14:05;5.25;;;1.70;;
71048;SDS011;58704;53.358;-6.238;2023-04-25T11:16:31;5.10;;;1.87;;
71048;SDS011;58704;53.358;-6.238;2023-04-25T11:18:57;3.20;;;1.65;;
71048;SDS011;58704;53.358;-6.238;2023-04-25T11:21:23;3.67;;;1.80;;
71048;SDS011;58704;53.358;-6.238;2023-04-25T11:23:48;6.50;;;2.00;;
71048;SDS011;58704;53.358;-6.238;2023-04-25T11:26:14;5.95;;;2.10;;
71048;SDS011;58704;53.358;-6.238;2023-04-25T11:28:40;4.70;;;2.30;;
71048;SDS011;58704;53.358;-6.238;2023-04-25T11:31:05;5.50;;;1.90;;
71048;SDS011;58704;53.358;-6.238;2023-04-25T11:33:31;5.82;;;2.15;;
71048;SDS011;58704;53.358;-6.238;2023-04-25T11:35:57;4.13;;;2.00;;
71048;SDS011;58704;53.358;-6.238;2023-04-25T11:38:23;6.20;;;2.20;;
71048;SDS011;58704;53.358;-6.238;2023-04-25T11:40:51;5.25;;;2.33;;
71048;SDS011;58704;53.358;-6.238;2023-04-25T11:43:17;7.80;;;2.08;;
71048;SDS011;58704;53.358;-6.238;2023-04-25T11:45:51;6.13;;;2.15;;
71048;SDS011;58704;53.358;-6.238;2023-04-25T11:48:17;6.47;;;2.30;;
71048;SDS011;58704;53.358;-6.238;2023-04-25T11:50:44;5.50;;;2.55;;
71048;SDS011;58704;53.358;-6.238;2023-04-25T11:53:10;6.90;;;2.53;;
71048;SDS011;58704;53.358;-6.238;2023-04-25T11:55:35;6.40;;;2.45;;
71048;SDS011;58704;53.358;-6.238;2023-04-25T11:58:01;8.37;;;2.30;;
71048;SDS011;58704;53.358;-6.238;2023-04-25T12:00:28;6.97;;;2.72;;
71048;SDS011;58704;53.358;-6.238;2023-04-25T12:02:54;7.40;;;2.53;;
71048;SDS011;58704;53.358;-6.238;2023-04-25T12:05:23;7.35;;;2.72;;
71048;SDS011;58704;53.358;-6.238;2023-04-25T12:07:50;8.57;;;2.67;;
71048;SDS011;58704;53.358;-6.238;2023-04-25T12:10:16;6.83;;;2.70;;
71048;SDS011;58704;53.358;-6.238;2023-04-25T12:12:42;8.60;;;2.70;;
71048;SDS011;58704;53.358;-6.238;2023-04-25T12:15:13;9.07;;;2.63;;
71048;SDS011;58704;53.358;-6.238;2023-04-25T12:17:49;8.43;;;2.65;;
71048;SDS011;58704;53.358;-6.238;2023-04-25T12:20:16;5.83;;;2.40;;
71048;SDS011;58704;53.358;-6.238;2023-04-25T12:22:44;8.25;;;2.50;;
71048;SDS011;58704;53.358;-6.238;2023-04-25T12:25:11;8.30;;;3.30;;
71048;SDS011;58704;53.358;-6.238;2023-04-25T12:27:38;4.80;;;2.40;;
71048;SDS011;58704;53.358;-6.238;2023-04-25T12:30:07;6.57;;;2.80;;
71048;SDS011;58704;53.358;-6.238;2023-04-25T12:32:32;5.67;;;1.90;;
71048;SDS011;58704;53.358;-6.238;2023-04-25T12:34:58;5.38;;;2.10;;
71048;SDS011;58704;53.358;-6.238;2023-04-25T12:37:25;5.27;;;2.20;;
71048;SDS011;58704;53.358;-6.238;2023-04-25T12:39:51;7.38;;;2.10;;
71048;SDS011;58704;53.358;-6.238;2023-04-25T12:42:16;6.13;;;2.50;;
71048;SDS011;58704;53.358;-6.238;2023-04-25T12:44:41;7.10;;;2.13;;
71048;SDS011;58704;53.358;-6.238;2023-04-25T12:47:07;6.90;;;2.43;;
71048;SDS011;58704;53.358;-6.238;2023-04-25T12:49:32;8.52;;;2.40;;
71048;SDS011;58704;53.358;-6.238;2023-04-25T12:51:58;6.43;;;2.40;;
71048;SDS011;58704;53.358;-6.238;2023-04-25T12:54:23;7.30;;;2.70;;
71048;SDS011;58704;53.358;-6.238;2023-04-25T12:56:50;9.80;;;2.35;;
71048;SDS011;58704;53.358;-6.238;2023-04-25T12:59:16;7.80;;;2.63;;
71048;SDS011;58704;53.358;-6.238;2023-04-25T13:01:41;7.07;;;2.50;;
71048;SDS011;58704;53.358;-6.238;2023-04-25T13:04:07;4.80;;;2.47;;
71048;SDS011;58704;53.358;-6.238;2023-04-25T13:06:33;5.23;;;2.07;;
71048;SDS011;58704;53.358;-6.238;2023-04-25T13:08:58;7.30;;;2.20;;
71048;SDS011;58704;53.358;-6.238;2023-04-25T13:11:23;6.40;;;2.80;;
71048;SDS011;58704;53.358;-6.238;2023-04-25T13:13:49;5.60;;;2.80;;
71048;SDS011;58704;53.358;-6.238;2023-04-25T13:16:14;4.67;;;2.53;;
71048;SDS011;58704;53.358;-6.238;2023-04-25T13:18:40;7.37;;;3.20;;
71048;SDS011;58704;53.358;-6.238;2023-04-25T13:21:05;6.32;;;2.50;;
71048;SDS011;58704;53.358;-6.238;2023-04-25T13:23:31;11.50;;;3.17;;
71048;SDS011;58704;53.358;-6.238;2023-04-25T13:25:56;11.77;;;2.73;;
71048;SDS011;58704;53.358;-6.238;2023-04-25T13:28:26;6.93;;;2.53;;
71048;SDS011;58704;53.358;-6.238;2023-04-25T13:30:52;10.15;;;3.55;;
71048;SDS011;58704;53.358;-6.238;2023-04-25T13:33:18;7.47;;;2.87;;
71048;SDS011;58704;53.358;-6.238;2023-04-25T13:35:43;8.98;;;2.97;;
71048;SDS011;58704;53.358;-6.238;2023-04-25T13:38:12;10.35;;;3.55;;
71048;SDS011;58704;53.358;-6.238;2023-04-25T13:40:37;12.33;;;2.97;;
71048;SDS011;58704;53.358;-6.238;2023-04-25T13:43:03;7.80;;;2.50;;
71048;SDS011;58704;53.358;-6.238;2023-04-25T13:45:28;11.87;;;3.00;;
71048;SDS011;58704;53.358;-6.238;2023-04-25T13:47:53;10.70;;;3.50;;
71048;SDS011;58704;53.358;-6.238;2023-04-25T13:50:19;11.27;;;3.53;;
71048;SDS011;58704;53.358;-6.238;2023-04-25T13:52:45;7.07;;;2.92;;
71048;SDS011;58704;53.358;-6.238;2023-04-25T13:55:10;7.27;;;2.70;;
71048;SDS011;58704;53.358;-6.238;2023-04-25T13:57:36;11.40;;;3.40;;
71048;SDS011;58704;53.358;-6.238;2023-04-25T14:00:03;12.37;;;3.23;;
71048;SDS011;58704;53.358;-6.238;2023-04-25T14:02:33;13.07;;;3.20;;
71048;SDS011;58704;53.358;-6.238;2023-04-25T14:05:02;11.73;;;3.65;;
71048;SDS011;58704;53.358;-6.238;2023-04-25T14:07:28;11.85;;;3.10;;
71048;SDS011;58704;53.358;-6.238;2023-04-25T14:09:53;13.47;;;3.17;;
71048;SDS011;58704;53.358;-6.238;2023-04-25T14:12:18;9.87;;;3.07;;
71048;SDS011;58704;53.358;-6.238;2023-04-25T14:14:44;9.70;;;3.17;;
71048;SDS011;58704;53.358;-6.238;2023-04-25T14:17:09;11.68;;;3.03;;
71048;SDS011;58704;53.358;-6.238;2023-04-25T14:19:35;14.73;;;3.00;;
71048;SDS011;58704;53.358;-6.238;2023-04-25T14:22:00;7.93;;;3.27;;
71048;SDS011;58704;53.358;-6.238;2023-04-25T14:24:25;9.82;;;3.13;;
71048;SDS011;58704;53.358;-6.238;2023-04-25T14:26:51;11.73;;;3.40;;
71048;SDS011;58704;53.358;-6.238;2023-04-25T14:29:16;13.33;;;3.20;;
71048;SDS011;58704;53.358;-6.238;2023-04-25T14:31:42;8.63;;;2.97;;
71048;SDS011;58704;53.358;-6.238;2023-04-25T14:34:07;8.30;;;3.27;;
71048;SDS011;58704;53.358;-6.238;2023-04-25T14:36:33;11.02;;;3.42;;
71048;SDS011;58704;53.358;-6.238;2023-04-25T14:38:59;8.20;;;3.43;;
71048;SDS011;58704;53.358;-6.238;2023-04-25T14:41:25;8.45;;;3.00;;